Time;durP1;ratioP1;P1;durP2;ratioP2;P2;SDS_P1;SDS_P2;PMS_P1;PMS_P2;Temp;Humidity;BMP_temperature;BMP_pressure;BME280_temperature;BME280_humidity;BME280_pressure;Samples;Min_cycle;Max_cycle;Signal;HPM_P1;HPM_P2
2021/09/15 00:01:36;;;;;;;9.93;7.47;;;19.50;99.90;;;;;;5072819;28;20160;-73
2021/09/15 00:04:02;;;;;;;9.07;8.17;;;19.50;99.90;;;;;;5072750;28;20242;-73
2021/09/15 00:06:27;;;;;;;9.00;7.20;;;19.50;99.90;;;;;;5072880;28;20163;-73
2021/09/15 00:08:53;;;;;;;8.17;7.37;;;19.50;99.90;;;;;;5072848;28;20225;-73
2021/09/15 00:11:19;;;;;;;7.97;7.17;;;19.50;99.90;;;;;;5072262;28;20250;-73
2021/09/15 00:13:46;;;;;;;7.97;7.17;;;19.50;99.90;;;;;;5072744;28;20172;-73
2021/09/15 00:16:12;;;;;;;7.50;6.80;;;19.50;99.90;;;;;;5072640;28;20386;-73
2021/09/15 00:18:37;;;;;;;9.87;7.47;;;19.50;99.90;;;;;;5072598;28;20397;-73
2021/09/15 00:21:03;;;;;;;7.27;6.60;;;19.50;99.90;;;;;;5072226;28;20433;-73
2021/09/15 00:23:29;;;;;;;7.93;7.10;;;19.50;99.90;;;;;;5072740;28;20477;-73
2021/09/15 00:25:57;;;;;;;7.70;7.00;;;19.50;99.90;;;;;;5072237;28;20194;-73
2021/09/15 00:28:22;;;;;;;10.00;7.90;;;19.50;99.90;;;;;;5072677;28;20175;-73
2021/09/15 00:30:48;;;;;;;8.80;7.80;;;19.40;99.90;;;;;;5070866;28;20429;-73
2021/09/15 00:33:14;;;;;;;8.93;7.43;;;19.40;99.90;;;;;;5072516;28;20574;-73
2021/09/15 00:35:39;;;;;;;8.03;7.20;;;19.40;99.90;;;;;;5072352;28;20644;-73
2021/09/15 00:38:05;;;;;;;8.90;8.00;;;19.40;99.90;;;;;;5072517;28;20242;-73
2021/09/15 00:40:31;;;;;;;8.60;7.50;;;19.40;99.90;;;;;;5072271;28;20634;-73
2021/09/15 00:42:57;;;;;;;7.80;7.00;;;19.30;99.90;;;;;;5072059;28;20445;-73
2021/09/15 00:45:22;;;;;;;7.90;6.90;;;19.30;99.90;;;;;;5072377;28;20182;-73
2021/09/15 00:47:48;;;;;;;9.17;7.33;;;19.30;99.90;;;;;;5072608;28;20172;-73
2021/09/15 00:50:14;;;;;;;7.90;7.17;;;19.30;99.90;;;;;;5072072;28;20586;-73
2021/09/15 00:52:40;;;;;;;8.17;7.00;;;19.30;99.90;;;;;;5072297;28;20376;-73
2021/09/15 00:55:06;;;;;;;7.97;6.97;;;19.20;99.90;;;;;;5071971;28;20461;-73
2021/09/15 00:57:32;;;;;;;9.33;8.07;;;19.20;99.90;;;;;;5072113;28;20160;-73
2021/09/15 00:59:57;;;;;;;10.50;8.03;;;19.20;99.90;;;;;;5072216;28;20491;-73
2021/09/15 01:02:23;;;;;;;8.53;7.67;;;19.20;99.90;;;;;;5073701;28;20271;-73
2021/09/15 01:04:48;;;;;;;12.17;10.17;;;19.10;99.90;;;;;;5076058;28;20206;-73
2021/09/15 01:07:14;;;;;;;10.10;9.10;;;19.10;99.90;;;;;;5075880;28;20202;-73
2021/09/15 01:09:40;;;;;;;9.50;8.60;;;19.10;99.90;;;;;;5075529;28;20634;-73
2021/09/15 01:12:12;;;;;;;11.43;9.80;;;19.10;99.90;;;;;;5060780;28;20195;-73
2021/09/15 01:14:39;;;;;;;12.63;10.00;;;19.10;99.90;;;;;;5055507;28;20461;-73
2021/09/15 01:17:05;;;;;;;12.63;8.67;;;19.00;99.90;;;;;;5067426;28;20508;-73
2021/09/15 01:19:30;;;;;;;12.60;10.23;;;19.10;99.90;;;;;;5075644;28;20964;-73
2021/09/15 01:21:58;;;;;;;12.60;10.00;;;19.10;99.90;;;;;;5075108;28;20262;-73
2021/09/15 01:24:28;;;;;;;11.83;9.43;;;19.10;99.90;;;;;;5075729;28;20174;-73
2021/09/15 01:26:54;;;;;;;10.73;9.60;;;19.10;99.90;;;;;;5075339;28;20401;-73
2021/09/15 01:29:23;;;;;;;12.10;10.00;;;19.10;99.90;;;;;;5075361;28;20758;-73
2021/09/15 01:34:45;;;;;;;12.47;9.17;;;19.10;99.90;;;;;;5114609;27;20926;-72
2021/09/15 01:37:13;;;;;;;12.10;10.50;;;19.10;99.90;;;;;;5110870;28;20384;-72
2021/09/15 01:39:40;;;;;;;11.63;8.43;;;19.10;99.90;;;;;;5110738;28;20503;-72
2021/09/15 01:42:07;;;;;;;10.47;9.33;;;19.10;99.90;;;;;;5110453;28;20826;-72
2021/09/15 01:44:37;;;;;;;11.90;9.40;;;19.10;99.90;;;;;;5110559;28;20396;-73
2021/09/15 01:47:04;;;;;;;10.10;9.10;;;19.10;99.90;;;;;;5110941;28;20487;-73
2021/09/15 01:49:32;;;;;;;9.73;8.73;;;19.10;99.90;;;;;;5110673;28;20376;-73
2021/09/15 01:51:59;;;;;;;9.83;8.67;;;19.10;99.90;;;;;;5110261;28;20987;-73
2021/09/15 01:54:25;;;;;;;10.73;9.37;;;19.20;99.90;;;;;;5110382;28;20443;-73
2021/09/15 01:56:52;;;;;;;12.20;8.90;;;19.10;99.90;;;;;;5093314;28;20485;-73
2021/09/15 01:59:17;;;;;;;12.70;9.10;;;19.10;99.90;;;;;;5089928;28;20429;-73
2021/09/15 02:01:43;;;;;;;12.23;9.30;;;19.20;99.90;;;;;;5099434;28;20427;-73
2021/09/15 02:04:08;;;;;;;8.50;7.60;;;19.10;99.90;;;;;;5110173;27;20254;-73
2021/09/15 02:06:34;;;;;;;8.93;8.10;;;19.10;99.90;;;;;;5110374;28;20163;-73
2021/09/15 02:09:00;;;;;;;9.63;8.63;;;19.10;99.90;;;;;;5110106;28;20204;-73
2021/09/15 02:11:27;;;;;;;8.43;7.57;;;19.10;99.90;;;;;;5109788;28;20416;-73
2021/09/15 02:13:53;;;;;;;9.77;8.77;;;19.10;99.90;;;;;;5109875;28;20178;-73
2021/09/15 02:16:18;;;;;;;9.17;8.20;;;19.10;99.90;;;;;;5109908;28;20458;-73
2021/09/15 02:18:44;;;;;;;8.70;7.83;;;19.10;99.90;;;;;;5109930;28;20224;-73
2021/09/15 02:21:10;;;;;;;9.00;8.20;;;19.10;99.90;;;;;;5109760;28;20519;-73
2021/09/15 02:23:35;;;;;;;10.10;8.67;;;19.10;99.90;;;;;;5110280;28;20263;-73
2021/09/15 02:26:01;;;;;;;9.93;8.97;;;19.10;99.90;;;;;;5109952;28;20182;-73
2021/09/15 02:28:27;;;;;;;10.00;8.80;;;19.10;99.90;;;;;;5109561;28;20159;-73
2021/09/15 02:30:52;;;;;;;9.77;8.77;;;19.10;99.90;;;;;;5109156;28;20166;-73
2021/09/15 02:33:18;;;;;;;9.63;8.63;;;19.10;99.90;;;;;;5109806;28;20209;-73
2021/09/15 02:35:43;;;;;;;8.70;7.90;;;19.10;99.90;;;;;;5109722;28;20155;-73
2021/09/15 02:38:09;;;;;;;8.77;7.97;;;19.10;99.90;;;;;;5109762;28;20146;-73
2021/09/15 02:40:34;;;;;;;8.73;7.80;;;19.10;99.90;;;;;;5105514;28;20186;-73
2021/09/15 02:43:00;;;;;;;10.43;9.30;;;19.10;99.90;;;;;;5108758;28;20665;-73
2021/09/15 02:45:25;;;;;;;10.53;8.87;;;19.10;99.90;;;;;;5099575;28;20242;-73
2021/09/15 02:47:51;;;;;;;10.83;8.67;;;19.10;99.90;;;;;;5095711;28;20667;-73
2021/09/15 02:50:16;;;;;;;9.03;8.13;;;19.10;99.90;;;;;;5095892;28;20173;-69
2021/09/15 02:52:42;;;;;;;10.33;8.87;;;19.10;99.90;;;;;;5095858;28;20632;-69
2021/09/15 02:55:08;;;;;;;11.00;7.73;;;19.10;99.90;;;;;;5096146;28;20151;-72
2021/09/15 02:57:33;;;;;;;11.80;9.23;;;19.10;99.90;;;;;;5095847;28;20163;-72
2021/09/15 02:59:59;;;;;;;7.63;6.87;;;19.10;99.90;;;;;;5095219;28;20674;-73
2021/09/15 03:02:25;;;;;;;9.00;8.10;;;19.10;99.90;;;;;;5094961;28;20166;-73
2021/09/15 03:04:50;;;;;;;14.30;8.40;;;19.10;99.90;;;;;;5095479;28;20167;-73
2021/09/15 03:07:16;;;;;;;7.50;6.70;;;19.10;99.90;;;;;;5095551;28;20182;-73
2021/09/15 03:09:41;;;;;;;8.30;7.50;;;19.10;99.90;;;;;;5095010;28;20217;-73
2021/09/15 03:12:07;;;;;;;10.10;7.80;;;19.00;99.90;;;;;;5095567;28;20171;-73
2021/09/15 03:14:33;;;;;;;10.27;7.70;;;19.10;99.90;;;;;;5095224;28;20196;-73
2021/09/15 03:16:58;;;;;;;9.60;8.60;;;19.10;99.90;;;;;;5095182;28;20205;-73
2021/09/15 03:19:24;;;;;;;9.60;8.70;;;19.10;99.90;;;;;;5095093;28;20186;-73
2021/09/15 03:21:49;;;;;;;8.57;7.70;;;19.00;99.90;;;;;;5095383;28;20162;-73
2021/09/15 03:24:15;;;;;;;9.90;8.60;;;19.10;99.90;;;;;;5095156;28;20186;-73
2021/09/15 03:26:40;;;;;;;11.50;8.60;;;19.00;99.90;;;;;;5095151;28;20163;-73
2021/09/15 03:29:06;;;;;;;9.80;8.80;;;19.00;99.90;;;;;;5094345;28;20344;-73
2021/09/15 03:31:32;;;;;;;11.00;9.93;;;19.00;99.90;;;;;;5095217;28;20167;-73
2021/09/15 03:33:57;;;;;;;9.63;8.43;;;19.00;99.90;;;;;;5094739;28;20667;-73
2021/09/15 03:36:23;;;;;;;9.37;8.57;;;19.00;99.90;;;;;;5095016;28;20151;-73
2021/09/15 03:38:48;;;;;;;10.20;9.10;;;19.00;99.90;;;;;;5094925;28;20566;-73
2021/09/15 03:41:14;;;;;;;10.83;8.90;;;19.00;99.90;;;;;;5094611;28;20539;-72
2021/09/15 03:43:39;;;;;;;9.00;8.17;;;19.00;99.90;;;;;;5094708;28;20167;-73
2021/09/15 03:46:05;;;;;;;12.10;9.77;;;19.00;99.90;;;;;;5094772;28;20163;-73
2021/09/15 03:48:31;;;;;;;9.87;8.87;;;19.00;99.90;;;;;;5093310;28;20506;-72
2021/09/15 03:50:56;;;;;;;9.90;8.90;;;19.00;99.90;;;;;;5090179;28;20474;-72
2021/09/15 03:53:22;;;;;;;9.33;8.43;;;19.00;99.90;;;;;;5089301;28;20198;-72
2021/09/15 03:55:48;;;;;;;10.20;9.20;;;19.00;99.90;;;;;;5079029;28;20174;-73
2021/09/15 03:58:13;;;;;;;11.50;9.33;;;19.00;99.90;;;;;;5083092;28;20221;-73
2021/09/15 04:00:39;;;;;;;10.27;9.10;;;19.00;99.90;;;;;;5083119;28;20187;-73
2021/09/15 04:03:04;;;;;;;10.27;9.10;;;19.00;99.90;;;;;;5084927;28;20593;-73
2021/09/15 04:05:30;;;;;;;11.93;9.23;;;19.00;99.90;;;;;;5086153;28;20198;-73
2021/09/15 04:07:56;;;;;;;10.30;8.83;;;19.00;99.90;;;;;;5088946;28;20547;-73
2021/09/15 04:10:21;;;;;;;11.03;10.00;;;19.00;99.90;;;;;;5086501;28;20773;-73
2021/09/15 04:12:47;;;;;;;11.17;9.60;;;19.00;99.90;;;;;;5086572;28;20670;-73
2021/09/15 04:15:12;;;;;;;10.47;9.37;;;19.00;99.90;;;;;;5090620;28;20636;-73
2021/09/15 04:17:38;;;;;;;9.30;8.30;;;19.00;99.90;;;;;;5085233;28;20174;-73
2021/09/15 04:20:05;;;;;;;10.30;9.03;;;19.00;99.90;;;;;;5089696;28;20201;-73
2021/09/15 04:22:32;;;;;;;10.87;7.80;;;19.10;99.90;;;;;;5082793;28;20265;-73
2021/09/15 04:33:10;;;;;;;9.63;8.70;;;19.00;99.90;;;;;;5084514;28;20816;-77
2021/09/15 04:35:35;;;;;;;10.03;9.03;;;19.00;99.90;;;;;;5085729;28;20511;-77
2021/09/15 04:38:01;;;;;;;10.27;9.20;;;19.00;99.90;;;;;;5089105;28;20188;-77
2021/09/15 04:40:26;;;;;;;9.00;8.20;;;19.00;99.90;;;;;;5089589;28;20178;-77
2021/09/15 04:42:52;;;;;;;10.47;9.30;;;19.00;99.90;;;;;;5090104;28;20198;-77
2021/09/15 04:45:18;;;;;;;9.53;8.40;;;19.00;99.90;;;;;;5089178;28;20576;-77
2021/09/15 04:47:43;;;;;;;10.30;9.20;;;19.10;99.90;;;;;;5090255;28;20217;-77
2021/09/15 04:50:09;;;;;;;11.57;10.43;;;19.00;99.90;;;;;;5089934;28;20262;-77
2021/09/15 04:52:35;;;;;;;10.00;9.00;;;19.00;99.90;;;;;;5088014;28;20481;-77
2021/09/15 04:55:00;;;;;;;10.50;9.40;;;19.00;99.90;;;;;;5088783;28;20175;-77
2021/09/15 04:57:26;;;;;;;10.47;9.20;;;19.00;99.90;;;;;;5089627;28;20262;-77
2021/09/15 04:59:51;;;;;;;11.97;10.63;;;18.90;99.90;;;;;;5088453;28;20632;-77
2021/09/15 05:02:17;;;;;;;11.00;9.90;;;19.00;99.90;;;;;;5086904;28;20178;-77
2021/09/15 05:04:42;;;;;;;10.70;9.60;;;18.90;99.90;;;;;;5098629;28;20212;-77
2021/09/15 05:07:09;;;;;;;12.50;11.30;;;19.00;99.90;;;;;;5089210;28;20195;-77
2021/09/15 05:09:35;;;;;;;11.27;9.70;;;19.00;99.90;;;;;;5088845;28;20178;-77
2021/09/15 05:12:01;;;;;;;12.73;10.60;;;19.00;99.90;;;;;;5089430;28;20496;-77
2021/09/15 05:14:26;;;;;;;17.00;11.10;;;19.00;99.90;;;;;;5089923;28;20181;-77
2021/09/15 05:16:52;;;;;;;11.43;9.77;;;19.00;99.90;;;;;;5079581;28;20551;-77
2021/09/15 05:19:17;;;;;;;11.90;10.57;;;18.90;99.90;;;;;;5082604;28;20262;-77
2021/09/15 05:21:43;;;;;;;12.53;11.30;;;18.90;99.90;;;;;;5096426;28;20182;-77
2021/09/15 05:24:09;;;;;;;12.63;9.93;;;18.90;99.90;;;;;;5097063;28;20183;-77
2021/09/15 05:26:34;;;;;;;18.40;11.43;;;18.90;99.90;;;;;;5094915;28;20213;-77
2021/09/15 05:29:00;;;;;;;11.53;10.23;;;18.90;99.90;;;;;;5091637;28;20170;-77
2021/09/15 05:31:25;;;;;;;12.33;11.03;;;18.90;99.90;;;;;;5085404;28;20186;-77
2021/09/15 05:33:51;;;;;;;12.57;11.30;;;18.90;99.90;;;;;;5085490;28;20270;-77
2021/09/15 05:36:16;;;;;;;11.90;10.70;;;18.90;99.90;;;;;;5086861;28;20554;-77
2021/09/15 05:38:42;;;;;;;11.73;10.60;;;18.90;99.90;;;;;;5072605;28;20602;-77
2021/09/15 05:41:11;;;;;;;13.23;11.67;;;18.90;99.90;;;;;;5068490;28;20186;-76
2021/09/15 05:43:36;;;;;;;12.10;10.80;;;18.90;99.90;;;;;;5064719;28;20184;-76
2021/09/15 05:46:02;;;;;;;12.33;10.87;;;18.90;99.90;;;;;;5069443;28;20720;-76
2021/09/15 05:48:27;;;;;;;12.03;10.83;;;18.90;99.90;;;;;;5073134;28;20210;-76
2021/09/15 05:50:53;;;;;;;13.03;11.43;;;18.90;99.90;;;;;;5074173;28;20175;-76
2021/09/15 05:53:18;;;;;;;13.20;11.90;;;18.90;99.90;;;;;;5068852;28;20821;-76
2021/09/15 05:55:45;;;;;;;10.53;9.40;;;19.00;99.90;;;;;;5073996;28;20180;-76
2021/09/15 05:58:10;;;;;;;10.97;9.87;;;19.00;99.90;;;;;;5068488;28;20663;-76
2021/09/15 06:00:36;;;;;;;13.27;10.83;;;19.00;99.90;;;;;;5066436;28;20517;-76
2021/09/15 06:03:02;;;;;;;11.97;10.73;;;19.00;99.90;;;;;;5071227;28;20233;-76
2021/09/15 06:05:27;;;;;;;12.07;10.77;;;19.00;99.90;;;;;;5069999;28;20604;-76
2021/09/15 06:07:53;;;;;;;11.27;10.17;;;19.00;99.90;;;;;;5077110;28;20712;-77
2021/09/15 06:10:18;;;;;;;14.00;11.33;;;19.00;99.90;;;;;;5072284;28;20258;-77
2021/09/15 06:12:44;;;;;;;11.70;10.60;;;19.10;99.90;;;;;;5073534;28;20182;-76
2021/09/15 06:15:10;;;;;;;10.67;9.60;;;19.00;99.90;;;;;;5070969;28;20175;-76
2021/09/15 06:17:35;;;;;;;9.83;8.80;;;19.00;99.90;;;;;;5068975;28;20321;-76
2021/09/15 06:20:01;;;;;;;10.33;9.17;;;19.00;99.90;;;;;;5069769;28;20276;-77
2021/09/15 06:22:26;;;;;;;12.73;9.73;;;19.10;99.90;;;;;;5071223;28;20187;-76
2021/09/15 06:24:54;;;;;;;10.43;8.77;;;19.10;99.90;;;;;;5069963;28;20175;-76
2021/09/15 06:27:22;;;;;;;8.77;7.90;;;19.10;99.90;;;;;;5063534;28;20268;-77
2021/09/15 06:29:47;;;;;;;9.90;8.90;;;19.10;99.90;;;;;;5066895;28;20430;-76
2021/09/15 06:32:13;;;;;;;10.40;9.40;;;19.20;99.90;;;;;;5071074;28;20809;-76
2021/09/15 06:34:39;;;;;;;10.57;9.50;;;19.30;99.90;;;;;;5071143;28;20187;-76
2021/09/15 06:37:04;;;;;;;9.27;8.33;;;19.30;99.90;;;;;;5071392;28;20258;-77
2021/09/15 06:39:30;;;;;;;9.93;8.93;;;19.30;99.90;;;;;;5069037;28;20187;-77
2021/09/15 06:41:56;;;;;;;11.70;8.63;;;19.30;99.90;;;;;;5074036;28;20223;-77
2021/09/15 06:44:22;;;;;;;9.07;7.83;;;19.40;99.90;;;;;;5069318;28;20448;-77
2021/09/15 06:46:48;;;;;;;9.20;8.00;;;19.40;99.90;;;;;;5067733;28;20277;-77
2021/09/15 06:49:13;;;;;;;7.83;7.00;;;19.40;99.90;;;;;;5069087;28;20425;-76
2021/09/15 06:51:39;;;;;;;8.37;7.20;;;19.50;99.90;;;;;;5073866;28;20192;-77
2021/09/15 06:54:04;;;;;;;8.27;7.43;;;19.50;99.90;;;;;;5076588;28;20635;-76
2021/09/15 06:56:30;;;;;;;8.47;7.67;;;19.50;99.90;;;;;;5070760;28;20262;-77
2021/09/15 06:58:55;;;;;;;8.50;7.60;;;19.50;99.90;;;;;;5069916;28;20744;-76
2021/09/15 07:01:24;;;;;;;7.90;7.10;;;19.50;99.90;;;;;;5066348;28;20178;-77
2021/09/15 07:03:50;;;;;;;7.90;7.07;;;19.60;99.90;;;;;;5072363;28;20203;-77
2021/09/15 07:06:16;;;;;;;9.10;8.20;;;19.60;99.90;;;;;;5069323;28;20465;-77
2021/09/15 07:08:41;;;;;;;8.40;7.60;;;19.70;99.90;;;;;;5068669;28;20432;-77
2021/09/15 07:11:07;;;;;;;7.60;6.80;;;19.80;99.90;;;;;;5073030;28;20187;-76
2021/09/15 07:13:32;;;;;;;8.50;7.70;;;19.80;99.90;;;;;;5067356;28;20653;-75
2021/09/15 07:15:58;;;;;;;7.43;6.63;;;19.80;99.90;;;;;;5073250;28;20183;-75
2021/09/15 07:18:26;;;;;;;8.70;7.03;;;19.90;99.90;;;;;;5068281;28;20590;-76
2021/09/15 07:20:52;;;;;;;9.33;7.23;;;19.90;99.90;;;;;;5066851;28;20526;-75
2021/09/15 07:23:17;;;;;;;7.63;6.70;;;20.00;99.90;;;;;;5073440;28;20466;-75
2021/09/15 07:25:43;;;;;;;7.80;6.90;;;20.10;99.90;;;;;;5071915;28;20198;-75
2021/09/15 07:28:09;;;;;;;7.33;6.63;;;20.10;99.90;;;;;;5070510;28;20174;-75
2021/09/15 07:30:34;;;;;;;8.20;7.40;;;20.10;99.90;;;;;;5075248;28;20240;-76
2021/09/15 07:33:00;;;;;;;8.30;6.80;;;20.10;99.90;;;;;;5073613;28;20256;-75
2021/09/15 07:35:25;;;;;;;7.57;6.77;;;20.10;99.90;;;;;;5072443;28;20183;-75
2021/09/15 07:37:51;;;;;;;11.10;7.17;;;20.10;99.90;;;;;;5066654;28;20175;-75
2021/09/15 07:40:17;;;;;;;8.53;7.33;;;20.20;99.90;;;;;;5072830;28;20183;-76
2021/09/15 07:42:42;;;;;;;6.70;6.03;;;20.20;99.90;;;;;;5069795;28;20189;-76
2021/09/15 07:45:10;;;;;;;6.90;6.20;;;20.20;99.90;;;;;;5072124;28;20250;-75
2021/09/15 07:47:36;;;;;;;7.00;6.30;;;20.30;99.90;;;;;;5069819;28;20198;-76
2021/09/15 07:50:02;;;;;;;7.93;6.10;;;20.30;99.90;;;;;;5066774;28;21092;-75
2021/09/15 07:52:28;;;;;;;6.40;5.70;;;20.30;99.90;;;;;;5065743;28;20607;-75
2021/09/15 07:54:53;;;;;;;6.70;6.00;;;20.40;99.90;;;;;;5071331;28;20954;-75
2021/09/15 07:57:20;;;;;;;6.47;5.07;;;20.40;99.90;;;;;;5071377;28;20224;-74
2021/09/15 07:59:45;;;;;;;6.70;6.00;;;20.30;99.90;;;;;;5071847;28;20179;-74
2021/09/15 08:02:11;;;;;;;9.50;5.47;;;20.30;99.90;;;;;;5069983;28;20535;-74
2021/09/15 08:04:37;;;;;;;6.70;5.53;;;20.30;99.90;;;;;;5069500;28;20183;-75
2021/09/15 08:07:03;;;;;;;7.70;6.37;;;20.30;99.90;;;;;;5069333;28;20200;-74
2021/09/15 08:09:28;;;;;;;6.20;5.30;;;20.30;99.90;;;;;;5071694;28;20270;-75
2021/09/15 08:11:54;;;;;;;7.20;5.67;;;20.30;99.90;;;;;;5068993;28;20204;-75
2021/09/15 08:14:20;;;;;;;7.10;6.00;;;20.30;99.90;;;;;;5062998;28;20704;-75
2021/09/15 08:16:45;;;;;;;5.70;5.20;;;20.40;99.90;;;;;;5074038;28;20257;-75
2021/09/15 08:19:11;;;;;;;5.90;5.30;;;20.40;99.90;;;;;;5079168;28;20179;-75
2021/09/15 08:21:36;;;;;;;6.73;5.77;;;20.50;99.90;;;;;;5066259;28;20187;-75
2021/09/15 08:24:02;;;;;;;5.63;5.13;;;20.50;99.90;;;;;;5072105;28;20182;-75
2021/09/15 08:26:28;;;;;;;5.17;4.67;;;20.50;99.90;;;;;;5069611;28;20668;-76
2021/09/15 08:28:53;;;;;;;5.53;5.03;;;20.50;99.90;;;;;;5066083;28;20254;-75
2021/09/15 08:31:19;;;;;;;5.27;4.77;;;20.50;99.90;;;;;;5069309;28;20179;-76
2021/09/15 08:33:45;;;;;;;6.80;5.73;;;20.60;99.90;;;;;;5067538;28;20214;-76
2021/09/15 08:36:11;;;;;;;6.43;5.30;;;20.60;99.90;;;;;;5070539;28;20685;-76
2021/09/15 08:38:37;;;;;;;12.50;6.03;;;20.60;99.90;;;;;;5069886;28;20417;-75
2021/09/15 08:41:02;;;;;;;8.57;5.37;;;20.60;99.90;;;;;;5070364;28;20447;-75
2021/09/15 08:43:33;;;;;;;7.00;5.97;;;20.60;99.90;;;;;;5070035;28;20777;-76
2021/09/15 08:46:01;;;;;;;6.53;5.23;;;20.60;99.90;;;;;;5069512;28;20199;-75
2021/09/15 08:48:29;;;;;;;5.60;5.10;;;20.60;99.90;;;;;;5067855;28;20421;-75
2021/09/15 08:50:55;;;;;;;5.47;4.77;;;20.60;99.90;;;;;;5065258;28;20467;-75
2021/09/15 08:53:21;;;;;;;10.53;7.30;;;20.60;99.90;;;;;;5066609;28;20949;-75
2021/09/15 08:55:47;;;;;;;6.37;5.77;;;20.60;99.90;;;;;;5065573;28;20472;-76
2021/09/15 08:58:14;;;;;;;7.83;5.83;;;20.50;99.90;;;;;;5062875;28;20272;-76
2021/09/15 09:00:40;;;;;;;6.60;5.23;;;20.60;99.90;;;;;;5060769;28;20429;-75
2021/09/15 09:03:06;;;;;;;6.47;5.10;;;20.60;99.90;;;;;;5072775;28;20433;-75
2021/09/15 09:05:32;;;;;;;5.80;4.97;;;20.60;99.90;;;;;;5071444;28;20537;-75
2021/09/15 09:07:59;;;;;;;4.90;4.50;;;20.70;99.90;;;;;;5073246;28;20289;-75
2021/09/15 09:10:24;;;;;;;5.63;5.13;;;20.70;99.90;;;;;;5069356;28;20167;-75
2021/09/15 09:12:50;;;;;;;7.73;6.53;;;20.70;99.90;;;;;;5068913;28;20432;-75
2021/09/15 09:15:22;;;;;;;6.00;5.33;;;20.70;99.90;;;;;;5073946;28;20180;-75
2021/09/15 09:17:48;;;;;;;5.87;4.70;;;20.70;99.90;;;;;;5075636;28;20215;-75
2021/09/15 09:20:17;;;;;;;6.83;5.53;;;20.60;99.90;;;;;;5075982;28;20512;-75
2021/09/15 09:23:08;;;;;;;5.47;4.97;;;20.60;99.90;;;;;;5077247;28;20425;-75
2021/09/15 09:28:18;;;;;;;6.20;5.60;;;20.60;99.90;;;;;;5063130;28;21053;-73
2021/09/15 09:30:44;;;;;;;6.90;5.90;;;20.60;99.90;;;;;;5045374;28;20431;-74
2021/09/15 09:33:10;;;;;;;6.50;5.90;;;20.70;99.90;;;;;;5044505;28;20789;-74
2021/09/15 09:35:39;;;;;;;6.40;5.67;;;20.70;99.90;;;;;;5043431;28;20195;-73
2021/09/15 09:38:19;;;;;;;13.20;5.90;;;20.70;99.90;;;;;;5040878;28;20184;-74
2021/09/15 09:43:37;;;;;;;6.10;5.47;;;20.70;99.90;;;;;;5055801;28;20563;-74
2021/09/15 09:46:04;;;;;;;6.30;5.70;;;20.70;99.90;;;;;;5037365;28;20414;-74
2021/09/15 09:48:31;;;;;;;7.10;6.40;;;20.80;99.90;;;;;;5043997;28;20927;-74
2021/09/15 09:50:57;;;;;;;6.70;5.90;;;20.80;99.90;;;;;;5045986;28;20438;-74
2021/09/15 09:53:23;;;;;;;7.53;5.40;;;20.80;99.90;;;;;;5044697;28;20449;-74
2021/09/15 09:55:50;;;;;;;8.57;5.90;;;20.80;99.90;;;;;;5039241;28;20179;-74
2021/09/15 09:58:22;;;;;;;6.37;5.27;;;20.80;99.90;;;;;;5039160;28;20172;-74
2021/09/15 10:00:49;;;;;;;7.10;6.40;;;20.90;99.90;;;;;;5039424;28;20513;-74
2021/09/15 10:03:15;;;;;;;12.63;6.50;;;20.90;99.90;;;;;;5044843;28;20928;-74
2021/09/15 10:05:42;;;;;;;6.77;6.07;;;20.90;99.90;;;;;;5049722;28;20443;-74
2021/09/15 10:08:09;;;;;;;7.90;7.10;;;20.90;99.90;;;;;;5040514;28;20488;-74
2021/09/15 10:10:35;;;;;;;6.37;5.20;;;20.90;99.90;;;;;;5045175;28;20508;-74
2021/09/15 10:13:02;;;;;;;5.10;4.60;;;20.90;99.90;;;;;;5042988;28;20530;-74
2021/09/15 10:15:28;;;;;;;6.07;5.33;;;20.90;99.90;;;;;;5047767;28;20449;-74
2021/09/15 10:17:55;;;;;;;10.10;6.33;;;20.90;99.90;;;;;;5060911;28;20529;-74
2021/09/15 10:20:30;;;;;;;8.80;6.63;;;20.90;99.90;;;;;;5048641;28;20181;-74
2021/09/15 10:22:56;;;;;;;7.47;5.27;;;21.00;99.90;;;;;;5036285;28;20966;-74
2021/09/15 10:25:39;;;;;;;9.77;5.57;;;21.00;99.90;;;;;;5048163;28;20481;-74
2021/09/15 10:39:01;;;;;;;10.13;7.40;;;20.90;99.90;;;;;;5086777;27;21067;-74
2021/09/15 10:44:15;;;;;;;7.57;6.80;;;20.40;99.90;;;;;;5061003;28;21050;-75
2021/09/15 10:46:42;;;;;;;8.70;7.00;;;20.40;99.90;;;;;;5051334;28;20457;-76
2021/09/15 11:00:13;;;;;;;8.07;6.93;;;20.40;99.90;;;;;;5098851;27;21006;-76
2021/09/15 11:02:41;;;;;;;7.07;6.00;;;20.50;99.90;;;;;;5101130;28;20435;-75
2021/09/15 11:08:06;;;;;;;6.80;6.20;;;20.40;99.90;;;;;;5062500;28;21126;-74
2021/09/15 11:13:34;;;;;;;8.53;7.47;;;20.40;99.90;;;;;;5056742;28;20570;-75
2021/09/15 11:19:07;;;;;;;8.40;7.50;;;20.30;99.90;;;;;;5042486;28;20931;-74
2021/09/15 11:21:36;;;;;;;9.47;6.93;;;20.30;99.90;;;;;;5038953;28;20426;-74
2021/09/15 11:24:10;;;;;;;10.03;7.10;;;20.20;99.90;;;;;;5035984;28;20526;-74
2021/09/15 11:29:14;;;;;;;6.37;5.60;;;20.20;99.90;;;;;;5092540;27;21090;-74
2021/09/15 11:31:41;;;;;;;5.90;5.00;;;20.10;99.90;;;;;;5081783;28;20482;-74
2021/09/15 11:34:13;;;;;;;4.37;4.00;;;20.10;99.90;;;;;;5086697;28;20434;-74
2021/09/15 11:36:40;;;;;;;6.07;5.47;;;20.10;99.90;;;;;;5085275;28;20447;-74
2021/09/15 11:39:07;;;;;;;4.63;3.97;;;20.00;99.90;;;;;;5079179;28;20513;-74
2021/09/15 11:41:33;;;;;;;4.33;3.33;;;20.00;99.90;;;;;;5080258;28;20441;-74
2021/09/15 11:43:59;;;;;;;4.20;3.00;;;20.00;99.90;;;;;;5081672;28;20445;-74
2021/09/15 11:46:35;;;;;;;3.67;3.10;;;19.90;99.90;;;;;;5081966;28;20918;-74
2021/09/15 11:49:01;;;;;;;2.63;2.30;;;20.00;99.90;;;;;;5082937;28;20576;-75
2021/09/15 11:51:27;;;;;;;4.40;2.33;;;19.90;99.90;;;;;;5077308;28;20474;-75
2021/09/15 11:54:00;;;;;;;2.40;2.17;;;19.90;99.90;;;;;;5079251;28;20929;-74
2021/09/15 11:56:31;;;;;;;2.77;2.57;;;20.00;99.90;;;;;;5079945;28;20647;-74
2021/09/15 11:58:58;;;;;;;3.07;2.60;;;19.90;99.90;;;;;;5079219;28;20481;-74
2021/09/15 12:01:26;;;;;;;2.60;2.40;;;19.90;99.90;;;;;;5081137;28;20496;-74
2021/09/15 12:03:54;;;;;;;3.30;3.00;;;20.00;99.90;;;;;;5080723;28;20436;-74
2021/09/15 12:06:21;;;;;;;4.33;2.80;;;20.10;99.90;;;;;;5079395;28;20791;-74
2021/09/15 12:08:47;;;;;;;4.93;3.60;;;20.10;99.90;;;;;;5075525;28;20495;-74
2021/09/15 12:11:14;;;;;;;3.40;3.10;;;20.10;99.90;;;;;;5076180;28;20434;-74
2021/09/15 12:13:39;;;;;;;3.13;2.83;;;20.20;99.90;;;;;;5077187;28;20436;-74
2021/09/15 12:16:05;;;;;;;3.90;2.97;;;20.30;99.90;;;;;;5082502;28;20433;-74
2021/09/15 12:21:23;;;;;;;4.30;3.30;;;20.40;99.90;;;;;;5045093;28;20553;-74
2021/09/15 12:23:49;;;;;;;3.47;3.17;;;20.80;99.90;;;;;;5046062;28;20426;-74
2021/09/15 12:26:22;;;;;;;6.00;4.30;;;21.00;99.90;;;;;;5047317;28;20423;-74
2021/09/15 12:28:59;;;;;;;5.30;4.13;;;21.20;99.90;;;;;;5047405;28;20528;-74
2021/09/15 12:31:24;;;;;;;5.73;5.13;;;21.30;99.90;;;;;;5039936;28;20437;-74
2021/09/15 12:33:50;;;;;;;8.03;6.00;;;21.40;99.90;;;;;;5048218;28;21299;-74
2021/09/15 12:36:19;;;;;;;6.60;5.90;;;21.50;99.90;;;;;;5049638;28;20608;-74
2021/09/15 12:41:22;;;;;;;9.87;7.57;;;21.50;99.90;;;;;;5044578;28;20547;-74
2021/09/15 12:43:48;;;;;;;6.43;5.83;;;21.50;99.90;;;;;;5043399;28;20457;-74
2021/09/15 12:46:25;;;;;;;9.73;7.23;;;21.50;99.90;;;;;;5048553;28;20429;-74
2021/09/15 12:48:51;;;;;;;8.80;7.50;;;21.50;99.90;;;;;;5043227;28;20422;-74
2021/09/15 12:51:21;;;;;;;8.90;7.50;;;21.50;99.90;;;;;;5042412;28;20484;-74
2021/09/15 12:53:51;;;;;;;8.60;7.80;;;21.50;99.90;;;;;;5038633;28;20430;-74
2021/09/15 12:56:20;;;;;;;10.03;9.03;;;21.50;99.90;;;;;;5040770;28;20430;-74
2021/09/15 12:58:46;;;;;;;10.87;9.40;;;21.60;99.90;;;;;;5038414;28;20494;-74
2021/09/15 13:01:27;;;;;;;10.20;9.20;;;21.60;99.90;;;;;;5027255;28;20522;-74
2021/09/15 13:03:53;;;;;;;12.10;10.97;;;21.70;99.90;;;;;;5023502;28;20181;-74
2021/09/15 13:06:20;;;;;;;11.03;9.93;;;21.70;99.90;;;;;;5027490;28;20506;-74
2021/09/15 13:08:54;;;;;;;10.43;9.40;;;21.70;99.90;;;;;;5024756;28;20177;-74
2021/09/15 13:11:22;;;;;;;11.97;10.60;;;21.70;99.90;;;;;;5025299;28;20842;-74
2021/09/15 13:13:48;;;;;;;12.27;10.77;;;21.70;99.90;;;;;;5020455;28;21003;-74
2021/09/15 13:16:16;;;;;;;12.33;10.27;;;21.60;99.90;;;;;;5029343;28;20847;-74
2021/09/15 13:18:41;;;;;;;12.47;10.30;;;21.50;99.90;;;;;;5028856;28;20478;-74
2021/09/15 13:21:07;;;;;;;12.93;11.53;;;21.60;99.90;;;;;;5025031;28;21177;-74
2021/09/15 13:23:32;;;;;;;12.57;10.60;;;21.70;99.90;;;;;;5022872;28;20521;-74
2021/09/15 13:25:59;;;;;;;10.70;9.57;;;21.80;99.90;;;;;;5025514;28;20537;-74
2021/09/15 13:28:25;;;;;;;10.80;9.80;;;21.90;99.90;;;;;;5022806;28;20689;-74
2021/09/15 13:30:51;;;;;;;10.00;8.83;;;22.00;99.90;;;;;;5022813;28;20436;-74
2021/09/15 13:33:16;;;;;;;13.37;11.27;;;22.00;99.90;;;;;;5025219;28;20973;-74
2021/09/15 13:35:42;;;;;;;13.53;10.60;;;22.00;99.90;;;;;;5025008;28;20189;-73